FOXAE LFBH-LFRZ
Flight info
| Callsign | FOXAE |
|---|---|
| Flight time | 0h 37m |
| Altitude | 12000 |
| Route | LUSON A25 TIRAV UN490 TERPO |
| Aircraft | B58T/L-SDFGRY/C |
Departure
| Time | 2026-04-22 19:00 |
|---|---|
| Airport | La Rochelle Île de Ré Airport (LFBH) |
Arrival
| Time | 2026-04-22 19:37 |
|---|---|
| Airport | Saint-Nazaire-Montoir Airport (LFRZ) |
| Time | Latitude | Longitude | Altitude | Speed | Heading |
|---|---|---|---|---|---|
| 2026-04-22 18:50 | 46.17659 | -1.19434 | 68 ft | 0 kts | 318° |
| 2026-04-22 18:56 | 46.17665 | -1.19441 | 71 ft | 6 kts | 318° |
| 2026-04-22 18:56 | 46.17734 | -1.19500 | 71 ft | 16 kts | 3° |
| 2026-04-22 18:57 | 46.17866 | -1.19493 | 68 ft | 19 kts | 2° |
| 2026-04-22 18:57 | 46.17920 | -1.19636 | 71 ft | 25 kts | 274° |
| 2026-04-22 18:57 | 46.17927 | -1.19870 | 67 ft | 25 kts | 272° |
| 2026-04-22 18:57 | 46.17934 | -1.20121 | 71 ft | 23 kts | 272° |
| 2026-04-22 18:58 | 46.17942 | -1.20361 | 67 ft | 27 kts | 273° |
| 2026-04-22 18:58 | 46.17950 | -1.20595 | 68 ft | 26 kts | 269° |
| 2026-04-22 18:58 | 46.17945 | -1.20790 | 67 ft | 9 kts | 329° |
| 2026-04-22 18:58 | 46.17958 | -1.20755 | 70 ft | 0 kts | 92° |
| 2026-04-22 18:59 | 46.17956 | -1.20685 | 67 ft | 40 kts | 92° |
| 2026-04-22 18:59 | 46.17934 | -1.19911 | 127 ft | 102 kts | 92° |
| 2026-04-22 19:00 | 46.17921 | -1.19563 | 193 ft | 110 kts | 92° |
| 2026-04-22 19:00 | 46.17857 | -1.17619 | 773 ft | 120 kts | 88° |
| 2026-04-22 19:00 | 46.17806 | -1.16404 | 1125 ft | 125 kts | 92° |
| 2026-04-22 19:00 | 46.17754 | -1.15144 | 1466 ft | 127 kts | 90° |
| 2026-04-22 19:01 | 46.17735 | -1.13864 | 1844 ft | 128 kts | 81° |
| 2026-04-22 19:01 | 46.18196 | -1.12755 | 2201 ft | 138 kts | 43° |
| 2026-04-22 19:01 | 46.19150 | -1.12397 | 2526 ft | 153 kts | 358° |
| 2026-04-22 19:01 | 46.20141 | -1.13053 | 2877 ft | 161 kts | 329° |
| 2026-04-22 19:02 | 46.21059 | -1.13994 | 3226 ft | 162 kts | 329° |
| 2026-04-22 19:02 | 46.22013 | -1.14886 | 3569 ft | 163 kts | 330° |
| 2026-04-22 19:02 | 46.22661 | -1.15439 | 3810 ft | 164 kts | 333° |
| 2026-04-22 19:02 | 46.23675 | -1.16231 | 4149 ft | 166 kts | 334° |
| 2026-04-22 19:03 | 46.24708 | -1.16998 | 4513 ft | 168 kts | 334° |
| 2026-04-22 19:03 | 46.25752 | -1.17753 | 4858 ft | 168 kts | 334° |
| 2026-04-22 19:03 | 46.26798 | -1.18507 | 5197 ft | 168 kts | 334° |
| 2026-04-22 19:03 | 46.27849 | -1.19260 | 5551 ft | 168 kts | 334° |
| 2026-04-22 19:04 | 46.28901 | -1.20007 | 5903 ft | 169 kts | 337° |
| 2026-04-22 19:04 | 46.29959 | -1.20757 | 6256 ft | 170 kts | 336° |
| 2026-04-22 19:04 | 46.31025 | -1.21519 | 6605 ft | 171 kts | 336° |
| 2026-04-22 19:04 | 46.32097 | -1.22284 | 6941 ft | 172 kts | 335° |
| 2026-04-22 19:05 | 46.33172 | -1.23049 | 7278 ft | 172 kts | 335° |
| 2026-04-22 19:05 | 46.34247 | -1.23817 | 7621 ft | 172 kts | 334° |
| 2026-04-22 19:05 | 46.35323 | -1.24587 | 7971 ft | 172 kts | 335° |
| 2026-04-22 19:05 | 46.36400 | -1.25355 | 8314 ft | 173 kts | 335° |
| 2026-04-22 19:06 | 46.37476 | -1.26123 | 8666 ft | 172 kts | 334° |
| 2026-04-22 19:06 | 46.38543 | -1.26886 | 9021 ft | 172 kts | 334° |
| 2026-04-22 19:06 | 46.39625 | -1.27660 | 9383 ft | 172 kts | 334° |
| 2026-04-22 19:07 | 46.41778 | -1.29201 | 10122 ft | 173 kts | 333° |
| 2026-04-22 19:07 | 46.42857 | -1.29972 | 10458 ft | 173 kts | 333° |
| 2026-04-22 19:07 | 46.43920 | -1.30734 | 10791 ft | 173 kts | 333° |
| 2026-04-22 19:07 | 46.44999 | -1.31507 | 11135 ft | 173 kts | 333° |
| 2026-04-22 19:08 | 46.46075 | -1.32279 | 11482 ft | 173 kts | 333° |
| 2026-04-22 19:08 | 46.47152 | -1.33051 | 11832 ft | 172 kts | 333° |
| 2026-04-22 19:08 | 46.48247 | -1.33837 | 12022 ft | 182 kts | 333° |
| 2026-04-22 19:08 | 46.49427 | -1.34681 | 12050 ft | 195 kts | 335° |
| 2026-04-22 19:09 | 46.50722 | -1.35392 | 12061 ft | 203 kts | 344° |
| 2026-04-22 19:09 | 46.52107 | -1.35929 | 12067 ft | 208 kts | 344° |
| 2026-04-22 19:09 | 46.53492 | -1.36493 | 12068 ft | 211 kts | 344° |
| 2026-04-22 19:09 | 46.54921 | -1.37077 | 12068 ft | 209 kts | 344° |
| 2026-04-22 19:10 | 46.56311 | -1.37644 | 12068 ft | 205 kts | 344° |
| 2026-04-22 19:10 | 46.57678 | -1.38198 | 12068 ft | 202 kts | 344° |
| 2026-04-22 19:10 | 46.59021 | -1.38745 | 12070 ft | 200 kts | 343° |
| 2026-04-22 19:10 | 46.60322 | -1.39420 | 12072 ft | 198 kts | 336° |
| 2026-04-22 19:11 | 46.61547 | -1.40263 | 12073 ft | 197 kts | 334° |
| 2026-04-22 19:11 | 46.62774 | -1.41134 | 12075 ft | 196 kts | 334° |
| 2026-04-22 19:11 | 46.63999 | -1.42003 | 12075 ft | 196 kts | 334° |
| 2026-04-22 19:11 | 46.65224 | -1.42871 | 12075 ft | 196 kts | 334° |
| 2026-04-22 19:12 | 46.66448 | -1.43740 | 12076 ft | 196 kts | 334° |
| 2026-04-22 19:12 | 46.67674 | -1.44610 | 12077 ft | 196 kts | 334° |
| 2026-04-22 19:12 | 46.68899 | -1.45478 | 12076 ft | 196 kts | 334° |
| 2026-04-22 19:12 | 46.70125 | -1.46347 | 12076 ft | 196 kts | 334° |
| 2026-04-22 19:13 | 46.71350 | -1.47215 | 12074 ft | 196 kts | 334° |
| 2026-04-22 19:13 | 46.72574 | -1.48083 | 12074 ft | 196 kts | 334° |
| 2026-04-22 19:13 | 46.75088 | -1.49867 | 12074 ft | 196 kts | 334° |
| 2026-04-22 19:14 | 46.76313 | -1.50737 | 12075 ft | 195 kts | 334° |
| 2026-04-22 19:14 | 46.77532 | -1.51603 | 12074 ft | 194 kts | 334° |
| 2026-04-22 19:14 | 46.78744 | -1.52464 | 12075 ft | 193 kts | 334° |
| 2026-04-22 19:14 | 46.79953 | -1.53324 | 12073 ft | 193 kts | 334° |
| 2026-04-22 19:15 | 46.80750 | -1.53892 | 12075 ft | 193 kts | 334° |
| 2026-04-22 19:15 | 46.82366 | -1.55042 | 12076 ft | 193 kts | 334° |
| 2026-04-22 19:15 | 46.83571 | -1.55900 | 12077 ft | 193 kts | 334° |
| 2026-04-22 19:15 | 46.84773 | -1.56757 | 12076 ft | 193 kts | 334° |
| 2026-04-22 19:16 | 46.85976 | -1.57615 | 12076 ft | 192 kts | 334° |
| 2026-04-22 19:16 | 46.87014 | -1.58355 | 12080 ft | 183 kts | 334° |
| 2026-04-22 19:16 | 46.88134 | -1.59154 | 12073 ft | 176 kts | 334° |
| 2026-04-22 19:16 | 46.89221 | -1.59930 | 12072 ft | 172 kts | 334° |
| 2026-04-22 19:17 | 46.90229 | -1.60651 | 12071 ft | 170 kts | 334° |
| 2026-04-22 19:17 | 46.91273 | -1.61398 | 12073 ft | 168 kts | 334° |
| 2026-04-22 19:17 | 46.92321 | -1.62148 | 12074 ft | 167 kts | 334° |
| 2026-04-22 19:17 | 46.93363 | -1.62895 | 12076 ft | 166 kts | 334° |
| 2026-04-22 19:18 | 46.94403 | -1.63640 | 12076 ft | 166 kts | 334° |
| 2026-04-22 19:18 | 46.95447 | -1.64388 | 12075 ft | 167 kts | 334° |
| 2026-04-22 19:18 | 46.96495 | -1.65138 | 12075 ft | 168 kts | 334° |
| 2026-04-22 19:18 | 46.97543 | -1.65890 | 12077 ft | 168 kts | 334° |
| 2026-04-22 19:19 | 46.98595 | -1.66643 | 12080 ft | 168 kts | 334° |
| 2026-04-22 19:19 | 46.99647 | -1.67398 | 12079 ft | 168 kts | 334° |
| 2026-04-22 19:19 | 47.00702 | -1.68156 | 12079 ft | 169 kts | 334° |
| 2026-04-22 19:19 | 47.01753 | -1.68911 | 12078 ft | 168 kts | 334° |
| 2026-04-22 19:20 | 47.02792 | -1.69659 | 12075 ft | 168 kts | 334° |
| 2026-04-22 19:20 | 47.03844 | -1.70415 | 12077 ft | 168 kts | 334° |
| 2026-04-22 19:20 | 47.04894 | -1.71170 | 12083 ft | 168 kts | 334° |
| 2026-04-22 19:20 | 47.05947 | -1.71928 | 12083 ft | 168 kts | 334° |
| 2026-04-22 19:21 | 47.06998 | -1.72685 | 12084 ft | 168 kts | 334° |
| 2026-04-22 19:21 | 47.08051 | -1.73443 | 12074 ft | 169 kts | 334° |
| 2026-04-22 19:21 | 47.09147 | -1.74232 | 11825 ft | 181 kts | 334° |
| 2026-04-22 19:21 | 47.10327 | -1.74950 | 11578 ft | 187 kts | 343° |
| 2026-04-22 19:22 | 47.11622 | -1.75244 | 11346 ft | 190 kts | 356° |
| 2026-04-22 19:22 | 47.12947 | -1.75385 | 11102 ft | 192 kts | 353° |
| 2026-04-22 19:22 | 47.14271 | -1.75634 | 10859 ft | 192 kts | 351° |
| 2026-04-22 19:22 | 47.15598 | -1.75893 | 10612 ft | 192 kts | 352° |
| 2026-04-22 19:23 | 47.16925 | -1.76136 | 10369 ft | 192 kts | 352° |
| 2026-04-22 19:23 | 47.18254 | -1.76372 | 10063 ft | 194 kts | 351° |
| 2026-04-22 19:23 | 47.19590 | -1.76605 | 9683 ft | 197 kts | 352° |
| 2026-04-22 19:23 | 47.20948 | -1.76839 | 9345 ft | 196 kts | 352° |
| 2026-04-22 19:24 | 47.22299 | -1.77072 | 9009 ft | 195 kts | 352° |
| 2026-04-22 19:24 | 47.23644 | -1.77303 | 8676 ft | 194 kts | 353° |
| 2026-04-22 19:24 | 47.24985 | -1.77533 | 8347 ft | 194 kts | 353° |
| 2026-04-22 19:24 | 47.26321 | -1.77762 | 8021 ft | 193 kts | 354° |
| 2026-04-22 19:25 | 47.27650 | -1.77990 | 7700 ft | 192 kts | 354° |
| 2026-04-22 19:25 | 47.28978 | -1.78219 | 7384 ft | 192 kts | 355° |
| 2026-04-22 19:25 | 47.30280 | -1.78580 | 7066 ft | 192 kts | 337° |
| 2026-04-22 19:25 | 47.31400 | -1.79665 | 6760 ft | 194 kts | 321° |
| 2026-04-22 19:26 | 47.32392 | -1.81007 | 6447 ft | 193 kts | 317° |
| 2026-04-22 19:26 | 47.33337 | -1.82415 | 6111 ft | 192 kts | 315° |
| 2026-04-22 19:26 | 47.34255 | -1.83845 | 5779 ft | 192 kts | 314° |
| 2026-04-22 19:26 | 47.35067 | -1.85401 | 5454 ft | 193 kts | 303° |
| 2026-04-22 19:27 | 47.35751 | -1.87097 | 5133 ft | 192 kts | 301° |
| 2026-04-22 19:27 | 47.36411 | -1.88809 | 4823 ft | 191 kts | 300° |
| 2026-04-22 19:27 | 47.37062 | -1.90517 | 4492 ft | 192 kts | 300° |
| 2026-04-22 19:27 | 47.37711 | -1.92244 | 4161 ft | 193 kts | 300° |
| 2026-04-22 19:28 | 47.38356 | -1.93989 | 3832 ft | 194 kts | 300° |
| 2026-04-22 19:28 | 47.39008 | -1.95749 | 3501 ft | 197 kts | 300° |
| 2026-04-22 19:28 | 47.39654 | -1.97528 | 3236 ft | 193 kts | 300° |
| 2026-04-22 19:28 | 47.40226 | -1.99238 | 3104 ft | 184 kts | 296° |
| 2026-04-22 19:29 | 47.40712 | -2.00941 | 3038 ft | 176 kts | 294° |
| 2026-04-22 19:29 | 47.40936 | -2.02680 | 3006 ft | 170 kts | 266° |
| 2026-04-22 19:29 | 47.40912 | -2.04404 | 2999 ft | 166 kts | 266° |
| 2026-04-22 19:29 | 47.40879 | -2.06097 | 2990 ft | 164 kts | 265° |
| 2026-04-22 19:30 | 47.40851 | -2.07204 | 2988 ft | 162 kts | 265° |
| 2026-04-22 19:30 | 47.40786 | -2.09417 | 2994 ft | 159 kts | 265° |
| 2026-04-22 19:30 | 47.40732 | -2.11040 | 2991 ft | 158 kts | 265° |
| 2026-04-22 19:30 | 47.40678 | -2.12649 | 2991 ft | 156 kts | 265° |
| 2026-04-22 19:31 | 47.40626 | -2.14246 | 2991 ft | 155 kts | 265° |
| 2026-04-22 19:31 | 47.40566 | -2.15834 | 2989 ft | 154 kts | 264° |
| 2026-04-22 19:31 | 47.40475 | -2.17407 | 2983 ft | 153 kts | 262° |
| 2026-04-22 19:31 | 47.40346 | -2.18948 | 2982 ft | 152 kts | 249° |
| 2026-04-22 19:32 | 47.39875 | -2.20301 | 2989 ft | 148 kts | 234° |
| 2026-04-22 19:32 | 47.39381 | -2.21633 | 2985 ft | 148 kts | 234° |
| 2026-04-22 19:32 | 47.38889 | -2.22966 | 2987 ft | 148 kts | 234° |
| 2026-04-22 19:32 | 47.38377 | -2.24345 | 2787 ft | 160 kts | 234° |
| 2026-04-22 19:33 | 47.37795 | -2.25797 | 2540 ft | 167 kts | 229° |
| 2026-04-22 19:33 | 47.37016 | -2.27045 | 2290 ft | 163 kts | 206° |
| 2026-04-22 19:33 | 47.36022 | -2.27776 | 2039 ft | 159 kts | 190° |
| 2026-04-22 19:33 | 47.34970 | -2.28078 | 1783 ft | 149 kts | 167° |
| 2026-04-22 19:34 | 47.33934 | -2.27939 | 1532 ft | 149 kts | 162° |
| 2026-04-22 19:34 | 47.32916 | -2.27660 | 1275 ft | 149 kts | 159° |
| 2026-04-22 19:34 | 47.31987 | -2.27332 | 1109 ft | 143 kts | 157° |
| 2026-04-22 19:34 | 47.31050 | -2.26957 | 1026 ft | 135 kts | 150° |
| 2026-04-22 19:35 | 47.30367 | -2.26139 | 978 ft | 129 kts | 120° |
| 2026-04-22 19:35 | 47.30053 | -2.24907 | 870 ft | 133 kts | 94° |
| 2026-04-22 19:35 | 47.30011 | -2.23974 | 801 ft | 137 kts | 90° |
| 2026-04-22 19:35 | 47.30037 | -2.22131 | 633 ft | 130 kts | 82° |
| 2026-04-22 19:36 | 47.30162 | -2.20967 | 538 ft | 107 kts | 79° |
| 2026-04-22 19:36 | 47.30276 | -2.19921 | 423 ft | 102 kts | 76° |
| 2026-04-22 19:36 | 47.30441 | -2.18937 | 370 ft | 96 kts | 72° |
| 2026-04-22 19:36 | 47.30618 | -2.17995 | 307 ft | 95 kts | 75° |
| 2026-04-22 19:37 | 47.30795 | -2.17015 | 201 ft | 102 kts | 71° |
| 2026-04-22 19:37 | 47.31000 | -2.16022 | 27 ft | 95 kts | 73° |
| 2026-04-22 19:37 | 47.31146 | -2.15300 | 14 ft | 48 kts | 72° |
| 2026-04-22 19:37 | 47.31225 | -2.14913 | 17 ft | 32 kts | 73° |
| 2026-04-22 19:38 | 47.31285 | -2.14616 | 15 ft | 30 kts | 73° |
| 2026-04-22 19:38 | 47.31320 | -2.14349 | 13 ft | 16 kts | 75° |
| 2026-04-22 19:38 | 47.31332 | -2.14380 | 13 ft | 14 kts | 249° |
| 2026-04-22 19:38 | 47.31284 | -2.14600 | 15 ft | 31 kts | 253° |
| 2026-04-22 19:39 | 47.31218 | -2.14932 | 17 ft | 34 kts | 253° |
| 2026-04-22 19:39 | 47.31147 | -2.15279 | 14 ft | 37 kts | 254° |
| 2026-04-22 19:39 | 47.31089 | -2.15578 | 12 ft | 18 kts | 254° |
| 2026-04-22 19:39 | 47.31124 | -2.15704 | 13 ft | 17 kts | 341° |
| 2026-04-22 19:40 | 47.31222 | -2.15747 | 13 ft | 0 kts | 342° |
| 2026-04-22 19:41 | 47.31249 | -2.15761 | 13 ft | 11 kts | 341° |
| 2026-04-22 19:41 | 47.31344 | -2.15805 | 13 ft | 18 kts | 344° |
| 2026-04-22 19:42 | 47.31390 | -2.15847 | 13 ft | 0 kts | 254° |